createdAt,value
2022-10-07T00:01:09.488Z,1.60
2022-10-07T00:03:37.085Z,1.45
2022-10-07T00:06:11.011Z,1.13
2022-10-07T00:08:40.587Z,1.80
2022-10-07T00:11:11.661Z,1.07
2022-10-07T00:13:40.661Z,1.27
2022-10-07T00:16:13.490Z,1.30
2022-10-07T00:18:41.923Z,1.60
2022-10-07T00:21:13.296Z,1.40
2022-10-07T00:23:42.778Z,1.20
2022-10-07T00:26:17.300Z,1.20
2022-10-07T00:28:45.122Z,1.00
2022-10-07T00:31:16.415Z,1.45
2022-10-07T00:33:45.245Z,1.67
2022-10-07T00:36:20.782Z,1.53
2022-10-07T00:38:52.978Z,1.40
2022-10-07T00:41:22.859Z,1.60
2022-10-07T00:43:50.748Z,1.67
2022-10-07T00:46:23.577Z,1.77
2022-10-07T00:48:51.220Z,1.13
2022-10-07T00:51:18.936Z,1.98
2022-10-07T00:53:51.117Z,1.15
2022-10-07T00:56:19.070Z,1.30
2022-10-07T00:58:48.722Z,1.95
2022-10-07T01:01:18.400Z,1.50
2022-10-07T01:03:48.446Z,1.52
2022-10-07T01:06:16.143Z,1.40
2022-10-07T01:08:46.929Z,2.00
2022-10-07T01:11:26.559Z,1.30
2022-10-07T01:14:10.817Z,1.70
2022-10-07T01:16:52.591Z,1.30
2022-10-07T01:20:01.465Z,1.15
2022-10-07T01:22:47.643Z,1.13
2022-10-07T01:25:49.575Z,2.20
2022-10-07T01:28:24.391Z,0.90
2022-10-07T01:30:58.226Z,0.60
2022-10-07T01:33:30.510Z,0.52
2022-10-07T01:36:04.913Z,0.52
2022-10-07T01:38:35.161Z,1.20
2022-10-07T01:41:15.212Z,0.67
2022-10-07T01:43:45.055Z,0.77
2022-10-07T01:46:21.360Z,0.30
2022-10-07T01:48:49.333Z,0.40
2022-10-07T01:51:22.553Z,0.57
2022-10-07T01:54:27.881Z,0.40
2022-10-07T01:57:18.602Z,0.60
2022-10-07T02:00:03.644Z,0.50
2022-10-07T02:02:44.256Z,0.70
2022-10-07T02:05:29.442Z,0.73
2022-10-07T02:08:09.213Z,0.73
2022-10-07T02:11:05.877Z,1.00
2022-10-07T02:13:46.052Z,0.80
2022-10-07T02:16:18.863Z,1.10
2022-10-07T02:18:51.093Z,0.70
2022-10-07T02:21:25.409Z,1.20
2022-10-07T02:23:56.715Z,0.90
2022-10-07T02:26:28.024Z,1.05
2022-10-07T02:28:58.175Z,0.90
2022-10-07T02:31:30.546Z,1.33
2022-10-07T02:34:03.314Z,1.20
2022-10-07T02:36:38.089Z,0.85
2022-10-07T02:39:08.252Z,1.00
2022-10-07T02:42:00.614Z,0.70
2022-10-07T02:44:40.062Z,0.60
2022-10-07T02:47:11.518Z,1.03
2022-10-07T02:49:41.452Z,0.60
2022-10-07T02:52:16.442Z,0.80
2022-10-07T02:54:59.564Z,0.70
2022-10-07T02:57:32.998Z,0.50
2022-10-07T03:00:01.800Z,0.67
2022-10-07T03:02:44.776Z,0.60
2022-10-07T03:05:14.494Z,0.80
2022-10-07T03:07:42.603Z,0.70
2022-10-07T03:10:10.872Z,1.15
2022-10-07T03:12:38.456Z,0.77
2022-10-07T03:15:06.471Z,1.00
2022-10-07T03:17:34.189Z,0.73
2022-10-07T03:20:02.218Z,0.60
2022-10-07T03:22:31.073Z,0.90
2022-10-07T03:24:58.797Z,1.20
2022-10-07T03:27:26.661Z,1.13
2022-10-07T03:29:55.214Z,1.02
2022-10-07T03:32:22.872Z,1.20
2022-10-07T03:34:51.596Z,1.00
2022-10-07T03:37:19.076Z,2.10
2022-10-07T03:39:46.898Z,1.45
2022-10-07T03:42:14.545Z,1.00
2022-10-07T03:44:42.205Z,1.02
2022-10-07T03:47:10.858Z,1.30
2022-10-07T03:49:39.864Z,1.40
2022-10-07T03:52:07.455Z,1.63
2022-10-07T03:54:35.312Z,1.05
2022-10-07T03:57:23.926Z,1.30
2022-10-07T03:59:53.657Z,1.67
2022-10-07T04:02:23.579Z,1.80
2022-10-07T04:04:54.281Z,1.40
2022-10-07T04:07:23.829Z,1.30
2022-10-07T04:09:52.236Z,1.80
2022-10-07T04:12:20.687Z,1.10
2022-10-07T04:14:48.418Z,1.50
2022-10-07T04:17:18.942Z,1.27
2022-10-07T04:19:46.942Z,1.13
2022-10-07T04:22:15.324Z,1.40
2022-10-07T04:24:43.571Z,1.35
2022-10-07T04:27:23.447Z,1.20
2022-10-07T04:29:59.609Z,1.05
2022-10-07T04:32:27.456Z,1.27
2022-10-07T04:34:55.020Z,1.27
2022-10-07T04:37:22.949Z,0.95
2022-10-07T04:40:00.624Z,1.23
2022-10-07T04:42:50.511Z,0.77
2022-10-07T04:45:18.242Z,1.00
2022-10-07T04:47:47.050Z,1.10
2022-10-07T04:50:15.562Z,1.30
2022-10-07T04:52:43.778Z,1.40
2022-10-07T04:55:12.535Z,1.30
2022-10-07T04:57:41.282Z,1.15
2022-10-07T05:00:10.169Z,1.35
2022-10-07T05:02:37.818Z,1.27
2022-10-07T05:05:05.870Z,1.83
2022-10-07T05:07:33.559Z,2.17
2022-10-07T05:10:01.625Z,1.40
2022-10-07T05:12:29.300Z,1.27
2022-10-07T05:14:59.324Z,1.60
2022-10-07T05:17:26.870Z,1.33
2022-10-07T05:19:55.053Z,2.05
2022-10-07T05:22:22.590Z,1.40
2022-10-07T05:24:50.108Z,1.88
2022-10-07T05:27:18.212Z,1.70
2022-10-07T05:29:45.777Z,2.10
2022-10-07T05:32:13.945Z,1.83
2022-10-07T05:34:42.140Z,1.67
2022-10-07T05:37:09.866Z,1.45
2022-10-07T05:39:38.333Z,1.55
2022-10-07T05:42:13.529Z,1.63
2022-10-07T05:44:46.331Z,1.25
2022-10-07T05:47:14.377Z,1.58
2022-10-07T05:49:41.860Z,1.30
2022-10-07T05:52:10.051Z,1.08
2022-10-07T05:54:38.065Z,0.93
2022-10-07T05:57:05.741Z,1.30
2022-10-07T05:59:35.564Z,1.88
2022-10-07T06:02:04.858Z,1.40
2022-10-07T06:04:33.413Z,1.40
2022-10-07T06:07:04.204Z,1.27
2022-10-07T06:09:51.238Z,1.30
2022-10-07T06:12:37.757Z,1.20
2022-10-07T06:15:10.816Z,1.60
2022-10-07T06:17:45.717Z,1.45
2022-10-07T06:20:17.775Z,1.43
2022-10-07T06:22:46.404Z,1.40
2022-10-07T06:25:15.656Z,0.95
2022-10-07T06:27:46.459Z,1.08
2022-10-07T06:30:17.830Z,1.20
2022-10-07T06:32:45.765Z,1.50
2022-10-07T06:35:13.491Z,1.75
2022-10-07T06:37:41.269Z,1.40
2022-10-07T06:40:12.014Z,1.80
2022-10-07T06:42:40.158Z,1.80
2022-10-07T06:45:16.619Z,1.30
2022-10-07T06:47:45.011Z,1.65
2022-10-07T06:50:12.778Z,1.70
2022-10-07T06:52:43.417Z,1.17
2022-10-07T06:55:11.832Z,1.48
2022-10-07T06:57:45.812Z,1.17
2022-10-07T07:00:24.203Z,1.23
2022-10-07T07:02:51.986Z,1.90
2022-10-07T07:05:19.622Z,1.00
2022-10-07T07:07:48.837Z,1.20
2022-10-07T07:10:17.314Z,0.73
2022-10-07T07:12:48.432Z,1.10
2022-10-07T07:15:17.482Z,0.88
2022-10-07T07:17:45.234Z,0.50
2022-10-07T07:20:14.345Z,0.55
2022-10-07T07:22:43.414Z,1.00
2022-10-07T07:25:11.968Z,0.50
2022-10-07T07:27:39.975Z,0.90
2022-10-07T07:30:09.959Z,0.63
2022-10-07T07:32:37.587Z,0.55
2022-10-07T07:35:06.069Z,0.40
2022-10-07T07:37:34.757Z,0.30
2022-10-07T07:40:03.388Z,0.50
2022-10-07T07:42:33.670Z,0.50
2022-10-07T07:45:01.368Z,0.40
2022-10-07T07:47:29.901Z,0.40
2022-10-07T07:49:57.719Z,0.40
2022-10-07T07:52:30.271Z,0.40
2022-10-07T07:54:59.936Z,0.30
2022-10-07T07:57:29.192Z,0.20
2022-10-07T08:00:00.451Z,0.20
2022-10-07T08:02:29.112Z,0.30
2022-10-07T08:04:57.251Z,0.32
2022-10-07T08:07:26.968Z,0.35
2022-10-07T08:09:55.445Z,0.43
2022-10-07T08:12:23.829Z,0.53
2022-10-07T08:14:53.701Z,0.80
2022-10-07T08:17:22.195Z,0.63
2022-10-07T08:19:50.433Z,0.70
2022-10-07T08:22:19.066Z,0.50
2022-10-07T08:24:50.471Z,0.53
2022-10-07T08:27:20.571Z,0.73
2022-10-07T08:29:48.136Z,0.50
2022-10-07T08:32:15.656Z,0.50
2022-10-07T08:34:43.246Z,0.52
2022-10-07T08:37:10.734Z,0.70
2022-10-07T08:39:38.307Z,0.77
2022-10-07T08:42:13.845Z,0.70
2022-10-07T08:44:44.510Z,0.80
2022-10-07T08:47:18.149Z,0.70
2022-10-07T08:50:03.976Z,0.80
2022-10-07T08:52:37.517Z,0.70
2022-10-07T08:55:14.337Z,0.70
2022-10-07T08:58:05.585Z,0.70
2022-10-07T09:01:08.580Z,1.00
2022-10-07T09:04:10.816Z,0.80
2022-10-07T09:07:16.290Z,0.70
2022-10-07T09:09:54.013Z,1.42
2022-10-07T09:12:29.247Z,0.90
2022-10-07T09:15:00.158Z,1.15
2022-10-07T09:17:35.391Z,0.83
2022-10-07T09:20:16.565Z,0.90
2022-10-07T09:22:55.105Z,0.93
2022-10-07T09:25:28.617Z,0.73
2022-10-07T09:27:56.881Z,0.90
2022-10-07T09:30:27.983Z,1.67
2022-10-07T09:32:57.120Z,1.10
2022-10-07T09:35:31.972Z,1.52
2022-10-07T09:38:09.309Z,2.00
2022-10-07T09:41:01.244Z,0.98
2022-10-07T09:43:31.717Z,1.20
2022-10-07T09:46:00.926Z,1.08
2022-10-07T09:48:33.423Z,1.30
2022-10-07T09:51:16.830Z,0.80
2022-10-07T09:54:05.597Z,1.23
2022-10-07T09:56:35.666Z,1.00
2022-10-07T09:59:20.964Z,0.90
2022-10-07T10:02:27.453Z,0.98
2022-10-07T10:04:57.423Z,0.95
2022-10-07T10:07:28.470Z,0.90
2022-10-07T10:10:00.176Z,0.90
2022-10-07T10:12:28.092Z,0.80
2022-10-07T10:14:59.447Z,1.05
2022-10-07T10:17:26.969Z,1.27
2022-10-07T10:19:55.876Z,2.55
2022-10-07T10:22:29.939Z,0.90
2022-10-07T10:25:16.340Z,1.00
2022-10-07T10:28:01.566Z,1.08
2022-10-07T10:30:30.394Z,0.75
2022-10-07T10:33:17.180Z,0.73
2022-10-07T10:36:00.584Z,0.80
2022-10-07T10:39:06.401Z,0.47
2022-10-07T10:41:46.308Z,0.40
2022-10-07T10:44:45.554Z,0.57
2022-10-07T10:47:32.009Z,0.50
2022-10-07T10:50:24.313Z,0.40
2022-10-07T10:53:01.693Z,0.70
2022-10-07T10:55:42.862Z,1.15
2022-10-07T10:58:18.767Z,0.57
2022-10-07T11:01:03.179Z,0.60
2022-10-07T11:03:50.230Z,0.87
2022-10-07T11:06:19.533Z,0.52
2022-10-07T11:08:50.275Z,0.70
2022-10-07T11:11:20.245Z,0.50
2022-10-07T11:13:59.892Z,0.43
2022-10-07T11:16:55.538Z,0.30
2022-10-07T11:19:36.120Z,0.73
2022-10-07T11:22:04.415Z,0.63
2022-10-07T11:24:41.262Z,0.82
2022-10-07T11:27:26.853Z,0.63
2022-10-07T11:30:01.599Z,0.83
2022-10-07T11:32:47.922Z,0.93
2022-10-07T11:35:28.548Z,1.05
2022-10-07T11:38:13.011Z,0.50
2022-10-07T11:41:07.529Z,0.30
2022-10-07T11:43:46.397Z,0.47
2022-10-07T11:46:34.620Z,0.20
2022-10-07T11:49:08.509Z,0.40
2022-10-07T11:52:01.228Z,0.50
2022-10-07T11:54:49.994Z,0.50
2022-10-07T11:57:22.024Z,0.60
2022-10-07T11:59:58.123Z,0.50
2022-10-07T12:02:28.859Z,0.82
2022-10-07T12:05:01.000Z,0.43
2022-10-07T12:07:58.187Z,0.75
2022-10-07T12:10:30.938Z,0.50
2022-10-07T12:13:09.365Z,0.40
2022-10-07T12:15:42.711Z,0.52
2022-10-07T12:18:19.714Z,0.40
2022-10-07T12:20:53.027Z,0.35
2022-10-07T12:23:20.744Z,0.40
2022-10-07T12:26:05.780Z,0.30
2022-10-07T12:28:40.180Z,0.93
2022-10-07T12:31:16.839Z,0.60
2022-10-07T12:33:44.643Z,1.10
2022-10-07T12:36:21.553Z,0.50
2022-10-07T12:39:12.470Z,0.73
2022-10-07T12:41:46.483Z,0.50
2022-10-07T12:44:22.839Z,0.60
2022-10-07T12:46:54.998Z,0.70
2022-10-07T12:49:40.978Z,1.00
2022-10-07T12:52:14.360Z,0.73
2022-10-07T12:54:56.548Z,0.70
2022-10-07T12:57:37.303Z,1.13
2022-10-07T13:00:21.098Z,1.02
2022-10-07T13:03:22.173Z,0.80
2022-10-07T13:06:13.663Z,1.05
2022-10-07T13:09:06.210Z,0.80
2022-10-07T13:11:36.744Z,1.00
2022-10-07T13:14:34.275Z,0.55
2022-10-07T13:17:01.885Z,0.67
2022-10-07T13:19:41.433Z,1.05
2022-10-07T13:22:17.596Z,0.60
2022-10-07T13:24:54.557Z,0.60
2022-10-07T13:27:27.999Z,0.40
2022-10-07T13:29:58.285Z,0.50
2022-10-07T13:32:29.882Z,0.70
2022-10-07T13:34:59.051Z,0.50
2022-10-07T13:37:37.786Z,0.60
2022-10-07T13:40:25.567Z,0.73
2022-10-07T13:42:55.213Z,0.60
2022-10-07T13:45:23.296Z,0.55
2022-10-07T13:47:51.556Z,0.40
2022-10-07T13:50:26.141Z,0.40
2022-10-07T13:52:56.086Z,0.57
2022-10-07T13:55:35.448Z,0.50
2022-10-07T13:58:07.024Z,0.50
2022-10-07T14:00:42.698Z,0.40
2022-10-07T14:03:18.520Z,0.60
2022-10-07T14:05:49.181Z,0.43
2022-10-07T14:08:27.937Z,0.53
2022-10-07T14:11:04.030Z,0.60
2022-10-07T14:13:34.149Z,0.38
2022-10-07T14:16:01.845Z,0.30
2022-10-07T14:18:31.926Z,0.50
2022-10-07T14:21:17.437Z,0.30
2022-10-07T14:23:47.080Z,0.40
2022-10-07T14:26:16.344Z,0.30
2022-10-07T14:28:44.298Z,0.30
2022-10-07T14:31:37.928Z,0.20
2022-10-07T14:34:38.395Z,0.50
2022-10-07T14:37:10.436Z,0.38
2022-10-07T14:39:44.802Z,0.50
2022-10-07T14:42:16.816Z,0.40
2022-10-07T14:44:44.746Z,0.40
2022-10-07T14:47:24.857Z,0.30
2022-10-07T14:49:54.155Z,0.38
2022-10-07T14:52:39.634Z,0.32
2022-10-07T14:55:23.895Z,0.60
2022-10-07T14:57:51.505Z,0.20
2022-10-07T15:00:25.131Z,0.47
2022-10-07T15:02:56.304Z,0.30
2022-10-07T15:05:26.543Z,0.40
2022-10-07T15:07:54.132Z,0.35
2022-10-07T15:10:25.333Z,0.43
2022-10-07T15:12:53.774Z,0.40
2022-10-07T15:15:21.344Z,0.45
2022-10-07T15:17:48.959Z,0.55
2022-10-07T15:20:17.595Z,0.50
2022-10-07T15:22:45.920Z,0.40
2022-10-07T15:25:15.688Z,0.30
2022-10-07T15:27:43.930Z,0.28
2022-10-07T15:30:12.256Z,0.60
2022-10-07T15:32:40.734Z,0.60
2022-10-07T15:35:08.682Z,0.43
2022-10-07T15:37:36.294Z,0.53
2022-10-07T15:40:06.742Z,0.60
2022-10-07T15:42:34.371Z,0.60
2022-10-07T15:45:01.889Z,0.60
2022-10-07T15:47:29.835Z,0.30
2022-10-07T15:49:57.418Z,0.40
2022-10-07T15:52:26.294Z,0.43
2022-10-07T15:54:54.256Z,0.60
2022-10-07T15:57:24.266Z,0.50
2022-10-07T15:59:52.766Z,0.73
2022-10-07T16:02:21.553Z,0.60
2022-10-07T16:04:49.586Z,0.30
2022-10-07T16:07:17.169Z,0.60
2022-10-07T16:09:44.836Z,0.93
2022-10-07T16:12:13.557Z,0.40
2022-10-07T16:14:41.221Z,0.40
2022-10-07T16:17:08.830Z,0.25
2022-10-07T16:19:36.481Z,0.40
2022-10-07T16:22:04.190Z,0.52
2022-10-07T16:24:35.316Z,3.35
2022-10-07T16:27:03.475Z,5.73
2022-10-07T16:29:49.555Z,2.85
2022-10-07T16:32:17.213Z,3.10
2022-10-07T16:34:44.931Z,1.67
2022-10-07T16:37:13.216Z,0.80
2022-10-07T16:39:40.859Z,0.87
2022-10-07T16:42:08.754Z,0.70
2022-10-07T16:44:39.147Z,0.47
2022-10-07T16:47:06.853Z,0.82
2022-10-07T16:49:36.532Z,0.70
2022-10-07T16:52:04.522Z,0.70
2022-10-07T16:54:35.442Z,0.77
2022-10-07T16:57:03.184Z,0.50
2022-10-07T16:59:30.925Z,0.50
2022-10-07T17:02:02.501Z,0.40
2022-10-07T17:04:30.269Z,0.40
2022-10-07T17:06:58.422Z,0.88
2022-10-07T17:09:25.948Z,0.60
2022-10-07T17:11:53.499Z,0.50
2022-10-07T17:14:21.899Z,0.47
2022-10-07T17:16:57.245Z,0.67
2022-10-07T17:19:27.107Z,0.90
2022-10-07T17:21:56.089Z,1.33
2022-10-07T17:24:24.133Z,0.47
2022-10-07T17:26:53.033Z,1.23
2022-10-07T17:29:23.407Z,0.40
2022-10-07T17:31:51.301Z,0.30
2022-10-07T17:34:20.768Z,0.20
2022-10-07T17:36:49.438Z,0.28
2022-10-07T17:39:19.151Z,0.30
2022-10-07T17:41:47.305Z,0.30
2022-10-07T17:44:15.102Z,0.50
2022-10-07T17:46:42.840Z,0.65
2022-10-07T17:49:14.725Z,0.65
2022-10-07T17:51:44.153Z,0.40
2022-10-07T17:54:13.791Z,0.50
2022-10-07T17:56:47.913Z,0.60
2022-10-07T17:59:16.680Z,0.50
2022-10-07T18:01:45.107Z,0.55
2022-10-07T18:04:17.108Z,0.55
2022-10-07T18:06:47.628Z,0.53
2022-10-07T18:09:18.731Z,0.52
2022-10-07T18:12:05.344Z,0.55
2022-10-07T18:14:54.154Z,1.02
2022-10-07T18:17:22.763Z,0.73
2022-10-07T18:19:50.578Z,1.40
2022-10-07T18:22:18.201Z,1.10
2022-10-07T18:24:46.234Z,0.95
2022-10-07T18:27:13.893Z,0.88
2022-10-07T18:29:41.567Z,0.80
2022-10-07T18:32:09.647Z,0.80
2022-10-07T18:34:37.274Z,0.77
2022-10-07T18:37:04.865Z,0.60
2022-10-07T18:39:32.358Z,0.65
2022-10-07T18:41:59.957Z,0.60
2022-10-07T18:44:27.755Z,0.70
2022-10-07T18:46:55.404Z,0.70
2022-10-07T18:49:23.362Z,0.60
2022-10-07T18:51:51.346Z,0.65
2022-10-07T18:54:20.293Z,0.90
2022-10-07T18:56:49.087Z,0.90
2022-10-07T18:59:18.523Z,1.00
2022-10-07T19:01:50.088Z,1.73
2022-10-07T19:04:19.157Z,1.42
2022-10-07T19:06:47.911Z,1.70
2022-10-07T19:09:18.489Z,1.37
2022-10-07T19:11:46.403Z,1.50
2022-10-07T19:14:15.484Z,1.45
2022-10-07T19:16:46.356Z,1.25
2022-10-07T19:19:17.299Z,0.90
2022-10-07T19:21:51.603Z,0.50
2022-10-07T19:24:20.036Z,0.60
2022-10-07T19:26:50.094Z,0.50
2022-10-07T19:29:18.251Z,0.50
2022-10-07T19:31:48.833Z,0.40
2022-10-07T19:34:19.318Z,0.50
2022-10-07T19:36:47.961Z,0.60
2022-10-07T19:39:21.093Z,0.90
2022-10-07T19:41:49.339Z,0.95
2022-10-07T19:44:16.979Z,0.60
2022-10-07T19:46:44.926Z,0.60
2022-10-07T19:49:12.579Z,0.60
2022-10-07T19:51:41.980Z,0.50
2022-10-07T19:54:10.867Z,0.50
2022-10-07T19:56:40.155Z,0.50
2022-10-07T19:59:10.887Z,0.63
2022-10-07T20:01:42.030Z,0.70
2022-10-07T20:04:21.744Z,0.40
2022-10-07T20:06:49.387Z,0.50
2022-10-07T20:09:18.701Z,0.70
2022-10-07T20:11:49.323Z,0.70
2022-10-07T20:14:16.957Z,0.98
2022-10-07T20:16:44.598Z,0.70
2022-10-07T20:19:15.985Z,0.40
2022-10-07T20:21:43.605Z,0.60
2022-10-07T20:24:16.569Z,0.50
2022-10-07T20:26:46.148Z,0.68
2022-10-07T20:29:16.159Z,0.90
2022-10-07T20:31:44.684Z,0.98
2022-10-07T20:34:16.009Z,0.55
2022-10-07T20:36:44.375Z,0.80
2022-10-07T20:39:38.686Z,0.90
2022-10-07T20:42:21.780Z,0.80
2022-10-07T20:44:50.206Z,0.60
2022-10-07T20:47:19.425Z,0.40
2022-10-07T20:49:48.818Z,0.87
2022-10-07T20:52:21.865Z,0.90
2022-10-07T20:54:50.240Z,0.80
2022-10-07T20:57:23.481Z,0.60
2022-10-07T20:59:51.086Z,0.70
2022-10-07T21:02:20.468Z,0.70
2022-10-07T21:04:48.406Z,0.80
2022-10-07T21:07:17.780Z,0.70
2022-10-07T21:09:46.173Z,0.65
2022-10-07T21:12:17.007Z,0.80
2022-10-07T21:14:44.649Z,0.70
2022-10-07T21:17:12.374Z,0.82
2022-10-07T21:19:40.768Z,0.70
2022-10-07T21:22:09.095Z,1.10
2022-10-07T21:24:36.724Z,0.90
2022-10-07T21:27:06.832Z,0.80
2022-10-07T21:29:39.185Z,0.60
2022-10-07T21:32:11.679Z,0.50
2022-10-07T21:34:40.273Z,0.55
2022-10-07T21:37:07.792Z,0.47
2022-10-07T21:39:35.405Z,0.40
2022-10-07T21:42:03.156Z,0.70
2022-10-07T21:44:33.455Z,0.75
2022-10-07T21:47:01.224Z,0.50
2022-10-07T21:49:28.752Z,0.85
2022-10-07T21:51:56.350Z,0.50
2022-10-07T21:54:24.045Z,0.63
2022-10-07T21:56:51.616Z,0.60
2022-10-07T21:59:19.098Z,0.65
2022-10-07T22:01:46.689Z,0.63
2022-10-07T22:04:18.798Z,0.73
2022-10-07T22:07:05.739Z,0.60
2022-10-07T22:09:33.498Z,0.50
2022-10-07T22:12:01.034Z,0.50
2022-10-07T22:14:28.721Z,0.52
2022-10-07T22:16:56.159Z,0.60
2022-10-07T22:19:23.675Z,0.60
2022-10-07T22:21:51.678Z,0.73
2022-10-07T22:24:19.293Z,0.75
2022-10-07T22:26:48.032Z,1.10
2022-10-07T22:29:16.843Z,0.60
2022-10-07T22:31:45.104Z,0.50
2022-10-07T22:34:33.259Z,0.60
2022-10-07T22:37:01.333Z,0.60
2022-10-07T22:39:29.093Z,0.65
2022-10-07T22:41:57.425Z,0.63
2022-10-07T22:44:28.211Z,0.65
2022-10-07T22:46:56.890Z,0.50
2022-10-07T22:49:29.336Z,0.47
2022-10-07T22:51:59.977Z,1.10
2022-10-07T22:54:28.302Z,0.80
2022-10-07T22:56:56.016Z,0.73
2022-10-07T22:59:23.591Z,0.55
2022-10-07T23:01:51.109Z,0.75
2022-10-07T23:04:20.352Z,0.50
2022-10-07T23:06:48.420Z,0.57
2022-10-07T23:09:15.950Z,0.60
2022-10-07T23:11:43.448Z,1.35
2022-10-07T23:14:12.027Z,0.82
2022-10-07T23:16:39.596Z,0.50
2022-10-07T23:19:07.091Z,0.97
2022-10-07T23:21:34.867Z,0.50
2022-10-07T23:24:07.289Z,0.63
2022-10-07T23:26:37.580Z,0.77
2022-10-07T23:29:07.090Z,0.60
2022-10-07T23:31:34.981Z,0.60
2022-10-07T23:34:03.311Z,0.50
2022-10-07T23:36:32.301Z,0.50
2022-10-07T23:39:00.682Z,0.43
2022-10-07T23:41:30.720Z,0.50
2022-10-07T23:44:00.640Z,0.37
2022-10-07T23:46:29.596Z,0.30
2022-10-07T23:48:57.231Z,0.52
2022-10-07T23:51:27.801Z,0.30
2022-10-07T23:54:00.404Z,0.65
2022-10-07T23:56:28.782Z,0.40
2022-10-07T23:58:56.288Z,0.45
